sensor_id;sensor_type;location;lat;lon;timestamp;temperature;humidity
6824;DHT22;58633;49.470;11.004;2023-03-01T00:01:50;1.50;51.50
6824;DHT22;58633;49.470;11.004;2023-03-01T00:04:15;1.60;51.70
6824;DHT22;58633;49.470;11.004;2023-03-01T00:06:42;1.90;52.10
6824;DHT22;58633;49.470;11.004;2023-03-01T00:09:11;1.70;52.10
6824;DHT22;58633;49.470;11.004;2023-03-01T00:11:37;1.50;52.00
6824;DHT22;58633;49.470;11.004;2023-03-01T00:14:03;1.80;52.30
6824;DHT22;58633;49.470;11.004;2023-03-01T00:16:37;2.10;52.50
6824;DHT22;58633;49.470;11.004;2023-03-01T00:19:05;1.40;52.10
6824;DHT22;58633;49.470;11.004;2023-03-01T00:21:30;1.50;52.60
6824;DHT22;58633;49.470;11.004;2023-03-01T00:26:24;1.40;52.50
6824;DHT22;58633;49.470;11.004;2023-03-01T00:31:19;1.80;53.00
6824;DHT22;58633;49.470;11.004;2023-03-01T00:33:45;1.10;52.50
6824;DHT22;58633;49.470;11.004;2023-03-01T00:36:13;1.50;52.90
6824;DHT22;58633;49.470;11.004;2023-03-01T00:38:40;1.20;52.70
6824;DHT22;58633;49.470;11.004;2023-03-01T00:41:08;1.20;52.80
6824;DHT22;58633;49.470;11.004;2023-03-01T00:43:35;1.10;52.70
6824;DHT22;58633;49.470;11.004;2023-03-01T00:46:16;1.20;53.00
6824;DHT22;58633;49.470;11.004;2023-03-01T00:51:17;1.10;53.00
6824;DHT22;58633;49.470;11.004;2023-03-01T00:53:43;1.30;53.20
6824;DHT22;58633;49.470;11.004;2023-03-01T00:56:11;1.10;53.10
6824;DHT22;58633;49.470;11.004;2023-03-01T00:58:37;1.10;53.10
6824;DHT22;58633;49.470;11.004;2023-03-01T01:01:18;1.30;53.20
6824;DHT22;58633;49.470;11.004;2023-03-01T01:03:52;1.10;53.00
6824;DHT22;58633;49.470;11.004;2023-03-01T01:06:29;0.70;52.90
6824;DHT22;58633;49.470;11.004;2023-03-01T01:11:23;1.00;53.20
6824;DHT22;58633;49.470;11.004;2023-03-01T01:13:49;1.10;53.70
6824;DHT22;58633;49.470;11.004;2023-03-01T01:16:17;1.10;53.10
6824;DHT22;58633;49.470;11.004;2023-03-01T01:18:43;0.90;53.40
6824;DHT22;58633;49.470;11.004;2023-03-01T01:21:14;1.10;53.60
6824;DHT22;58633;49.470;11.004;2023-03-01T01:23:41;1.10;53.50
6824;DHT22;58633;49.470;11.004;2023-03-01T01:26:12;0.80;53.40
6824;DHT22;58633;49.470;11.004;2023-03-01T01:28:38;0.80;53.40
6824;DHT22;58633;49.470;11.004;2023-03-01T01:31:04;0.50;53.10
6824;DHT22;58633;49.470;11.004;2023-03-01T01:35:56;1.00;53.70
6824;DHT22;58633;49.470;11.004;2023-03-01T01:38:22;0.90;53.40
6824;DHT22;58633;49.470;11.004;2023-03-01T01:40:49;0.50;53.10
6824;DHT22;58633;49.470;11.004;2023-03-01T01:43:24;0.70;53.50
6824;DHT22;58633;49.470;11.004;2023-03-01T01:45:52;1.00;53.60
6824;DHT22;58633;49.470;11.004;2023-03-01T01:48:22;0.90;53.50
6824;DHT22;58633;49.470;11.004;2023-03-01T01:50:57;0.80;53.40
6824;DHT22;58633;49.470;11.004;2023-03-01T01:53:24;0.80;53.40
6824;DHT22;58633;49.470;11.004;2023-03-01T01:55:56;0.80;53.30
6824;DHT22;58633;49.470;11.004;2023-03-01T01:58:25;1.00;53.60
6824;DHT22;58633;49.470;11.004;2023-03-01T02:00:53;0.90;53.50
6824;DHT22;58633;49.470;11.004;2023-03-01T02:03:25;0.80;53.70
6824;DHT22;58633;49.470;11.004;2023-03-01T02:05:58;1.00;53.70
6824;DHT22;58633;49.470;11.004;2023-03-01T02:08:29;0.90;53.40
6824;DHT22;58633;49.470;11.004;2023-03-01T02:10:56;0.70;53.50
6824;DHT22;58633;49.470;11.004;2023-03-01T02:13:22;0.90;53.80
6824;DHT22;58633;49.470;11.004;2023-03-01T02:15:48;0.40;53.30
6824;DHT22;58633;49.470;11.004;2023-03-01T02:18:17;0.70;53.50
6824;DHT22;58633;49.470;11.004;2023-03-01T02:21:03;1.30;54.10
6824;DHT22;58633;49.470;11.004;2023-03-01T02:23:30;0.80;54.10
6824;DHT22;58633;49.470;11.004;2023-03-01T02:28:43;1.40;54.20
6824;DHT22;58633;49.470;11.004;2023-03-01T02:31:13;0.80;53.70
6824;DHT22;58633;49.470;11.004;2023-03-01T02:33:59;0.90;53.90
6824;DHT22;58633;49.470;11.004;2023-03-01T02:36:29;0.50;53.70
6824;DHT22;58633;49.470;11.004;2023-03-01T02:39:00;0.90;54.10
6824;DHT22;58633;49.470;11.004;2023-03-01T02:41:28;0.80;54.30
6824;DHT22;58633;49.470;11.004;2023-03-01T02:46:24;0.60;54.40
6824;DHT22;58633;49.470;11.004;2023-03-01T02:48:55;0.40;54.30
6824;DHT22;58633;49.470;11.004;2023-03-01T02:56:40;0.40;54.30
6824;DHT22;58633;49.470;11.004;2023-03-01T02:59:07;0.70;54.60
6824;DHT22;58633;49.470;11.004;2023-03-01T03:01:33;0.40;54.30
6824;DHT22;58633;49.470;11.004;2023-03-01T03:04:04;0.70;55.00
6824;DHT22;58633;49.470;11.004;2023-03-01T03:06:29;0.70;54.50
6824;DHT22;58633;49.470;11.004;2023-03-01T03:11:21;0.40;54.20
6824;DHT22;58633;49.470;11.004;2023-03-01T03:18:39;0.40;54.20
6824;DHT22;58633;49.470;11.004;2023-03-01T03:21:08;0.00;54.10
6824;DHT22;58633;49.470;11.004;2023-03-01T03:23:35;0.50;54.90
6824;DHT22;58633;49.470;11.004;2023-03-01T03:28:29;0.60;54.60
6824;DHT22;58633;49.470;11.004;2023-03-01T03:33:22;0.20;54.50
6824;DHT22;58633;49.470;11.004;2023-03-01T03:35:49;-0.20;54.30
6824;DHT22;58633;49.470;11.004;2023-03-01T03:38:17;0.40;54.80
6824;DHT22;58633;49.470;11.004;2023-03-01T03:40:50;0.50;54.90
6824;DHT22;58633;49.470;11.004;2023-03-01T03:43:21;0.20;54.70
6824;DHT22;58633;49.470;11.004;2023-03-01T03:45:51;0.40;54.90
6824;DHT22;58633;49.470;11.004;2023-03-01T03:48:17;0.20;54.80
6824;DHT22;58633;49.470;11.004;2023-03-01T03:50:48;0.00;54.70
6824;DHT22;58633;49.470;11.004;2023-03-01T03:55:39;0.10;55.00
6824;DHT22;58633;49.470;11.004;2023-03-01T03:58:07;0.20;55.40
6824;DHT22;58633;49.470;11.004;2023-03-01T04:00:44;0.10;55.40
6824;DHT22;58633;49.470;11.004;2023-03-01T04:03:10;0.50;55.90
6824;DHT22;58633;49.470;11.004;2023-03-01T04:05:37;0.00;55.60
6824;DHT22;58633;49.470;11.004;2023-03-01T04:08:03;-0.20;55.30
6824;DHT22;58633;49.470;11.004;2023-03-01T04:10:35;0.00;55.50
6824;DHT22;58633;49.470;11.004;2023-03-01T04:13:01;-0.10;55.30
6824;DHT22;58633;49.470;11.004;2023-03-01T04:15:28;0.10;55.50
6824;DHT22;58633;49.470;11.004;2023-03-01T04:17:54;-0.10;55.40
6824;DHT22;58633;49.470;11.004;2023-03-01T04:20:22;-0.20;55.30
6824;DHT22;58633;49.470;11.004;2023-03-01T04:23:15;0.20;56.10
6824;DHT22;58633;49.470;11.004;2023-03-01T04:25:48;0.10;55.70
6824;DHT22;58633;49.470;11.004;2023-03-01T04:30:45;0.80;56.20
6824;DHT22;58633;49.470;11.004;2023-03-01T04:33:11;-0.20;55.80
6824;DHT22;58633;49.470;11.004;2023-03-01T04:35:37;-0.60;55.40
6824;DHT22;58633;49.470;11.004;2023-03-01T04:38:04;-0.20;55.80
6824;DHT22;58633;49.470;11.004;2023-03-01T04:42:55;-0.50;55.60
6824;DHT22;58633;49.470;11.004;2023-03-01T04:47:47;-0.20;55.90
6824;DHT22;58633;49.470;11.004;2023-03-01T04:50:15;0.00;56.20
6824;DHT22;58633;49.470;11.004;2023-03-01T04:52:43;-0.20;56.00
6824;DHT22;58633;49.470;11.004;2023-03-01T04:55:09;-0.40;55.90
6824;DHT22;58633;49.470;11.004;2023-03-01T04:57:35;-0.40;55.80
6824;DHT22;58633;49.470;11.004;2023-03-01T05:02:45;0.10;56.20
6824;DHT22;58633;49.470;11.004;2023-03-01T05:05:11;-0.30;56.00
6824;DHT22;58633;49.470;11.004;2023-03-01T05:07:36;0.30;56.60
6824;DHT22;58633;49.470;11.004;2023-03-01T05:12:28;-0.10;56.20
6824;DHT22;58633;49.470;11.004;2023-03-01T05:17:19;-0.10;56.30
6824;DHT22;58633;49.470;11.004;2023-03-01T05:29:31;-0.30;56.00
6824;DHT22;58633;49.470;11.004;2023-03-01T05:32:01;-0.20;56.10
6824;DHT22;58633;49.470;11.004;2023-03-01T05:34:33;-0.10;55.90
6824;DHT22;58633;49.470;11.004;2023-03-01T05:36:59;-0.30;55.90
6824;DHT22;58633;49.470;11.004;2023-03-01T05:39:26;0.50;56.70
6824;DHT22;58633;49.470;11.004;2023-03-01T05:41:58;-0.50;55.90
6824;DHT22;58633;49.470;11.004;2023-03-01T05:46:50;-0.20;56.20
6824;DHT22;58633;49.470;11.004;2023-03-01T05:49:16;3.20;59.30
6824;DHT22;58633;49.470;11.004;2023-03-01T05:51:43;-0.10;56.30
6824;DHT22;58633;49.470;11.004;2023-03-01T05:54:12;-0.30;56.20
6824;DHT22;58633;49.470;11.004;2023-03-01T05:56:37;-0.50;56.10
6824;DHT22;58633;49.470;11.004;2023-03-01T05:59:04;-0.20;56.50
6824;DHT22;58633;49.470;11.004;2023-03-01T06:01:33;-0.50;56.10
6824;DHT22;58633;49.470;11.004;2023-03-01T06:06:26;0.00;56.30
6824;DHT22;58633;49.470;11.004;2023-03-01T06:08:52;-0.20;56.10
6824;DHT22;58633;49.470;11.004;2023-03-01T06:11:18;-0.70;55.70
6824;DHT22;58633;49.470;11.004;2023-03-01T06:13:44;-0.10;56.60
6824;DHT22;58633;49.470;11.004;2023-03-01T06:16:10;0.00;56.30
6824;DHT22;58633;49.470;11.004;2023-03-01T06:18:37;-0.10;56.20
6824;DHT22;58633;49.470;11.004;2023-03-01T06:21:03;-0.30;56.00
6824;DHT22;58633;49.470;11.004;2023-03-01T06:23:29;0.60;56.70
6824;DHT22;58633;49.470;11.004;2023-03-01T06:25:55;0.10;56.20
6824;DHT22;58633;49.470;11.004;2023-03-01T06:28:20;-0.10;56.50
6824;DHT22;58633;49.470;11.004;2023-03-01T06:30:46;0.40;56.50
6824;DHT22;58633;49.470;11.004;2023-03-01T06:35:38;-0.40;55.80
6824;DHT22;58633;49.470;11.004;2023-03-01T06:38:04;0.00;55.90
6824;DHT22;58633;49.470;11.004;2023-03-01T06:40:30;0.00;55.90
6824;DHT22;58633;49.470;11.004;2023-03-01T06:42:57;0.00;56.00
6824;DHT22;58633;49.470;11.004;2023-03-01T06:45:22;-0.40;55.70
6824;DHT22;58633;49.470;11.004;2023-03-01T06:47:48;0.20;56.00
6824;DHT22;58633;49.470;11.004;2023-03-01T06:50:18;0.20;56.10
6824;DHT22;58633;49.470;11.004;2023-03-01T06:55:12;0.00;56.00
6824;DHT22;58633;49.470;11.004;2023-03-01T06:57:37;0.00;55.90
6824;DHT22;58633;49.470;11.004;2023-03-01T07:00:05;0.20;56.50
6824;DHT22;58633;49.470;11.004;2023-03-01T07:02:31;0.30;56.10
6824;DHT22;58633;49.470;11.004;2023-03-01T07:04:56;2.10;58.00
6824;DHT22;58633;49.470;11.004;2023-03-01T07:07:22;1.00;56.40
6824;DHT22;58633;49.470;11.004;2023-03-01T07:09:49;1.10;54.80
6824;DHT22;58633;49.470;11.004;2023-03-01T07:14:40;1.10;55.20
6824;DHT22;58633;49.470;11.004;2023-03-01T07:17:06;1.10;55.00
6824;DHT22;58633;49.470;11.004;2023-03-01T07:19:31;1.70;55.40
6824;DHT22;58633;49.470;11.004;2023-03-01T07:21:57;1.20;55.00
6824;DHT22;58633;49.470;11.004;2023-03-01T07:24:23;1.10;54.90
6824;DHT22;58633;49.470;11.004;2023-03-01T07:26:49;1.40;55.20
6824;DHT22;58633;49.470;11.004;2023-03-01T07:29:16;1.20;55.00
6824;DHT22;58633;49.470;11.004;2023-03-01T07:31:41;1.10;54.90
6824;DHT22;58633;49.470;11.004;2023-03-01T07:34:07;1.20;55.40
6824;DHT22;58633;49.470;11.004;2023-03-01T07:36:32;1.00;54.90
6824;DHT22;58633;49.470;11.004;2023-03-01T07:38:58;1.40;55.20
6824;DHT22;58633;49.470;11.004;2023-03-01T07:41:24;1.60;55.40
6824;DHT22;58633;49.470;11.004;2023-03-01T07:43:49;1.10;55.00
6824;DHT22;58633;49.470;11.004;2023-03-01T07:48:41;1.20;55.00
6824;DHT22;58633;49.470;11.004;2023-03-01T07:51:07;1.30;55.10
6824;DHT22;58633;49.470;11.004;2023-03-01T07:56:07;1.60;55.20
6824;DHT22;58633;49.470;11.004;2023-03-01T07:58:37;1.90;55.30
6824;DHT22;58633;49.470;11.004;2023-03-01T08:01:11;1.60;54.80
6824;DHT22;58633;49.470;11.004;2023-03-01T08:03:38;1.80;54.90
6824;DHT22;58633;49.470;11.004;2023-03-01T08:06:05;2.00;54.90
6824;DHT22;58633;49.470;11.004;2023-03-01T08:08:31;1.80;54.60
6824;DHT22;58633;49.470;11.004;2023-03-01T08:10:58;2.30;54.90
6824;DHT22;58633;49.470;11.004;2023-03-01T08:13:25;2.30;54.70
6824;DHT22;58633;49.470;11.004;2023-03-01T08:15:51;2.20;54.50
6824;DHT22;58633;49.470;11.004;2023-03-01T08:18:18;2.30;54.40
6824;DHT22;58633;49.470;11.004;2023-03-01T08:20:44;2.50;54.50
6824;DHT22;58633;49.470;11.004;2023-03-01T08:23:10;2.50;54.30
6824;DHT22;58633;49.470;11.004;2023-03-01T08:25:36;3.00;54.40
6824;DHT22;58633;49.470;11.004;2023-03-01T08:28:02;2.80;53.90
6824;DHT22;58633;49.470;11.004;2023-03-01T08:30:27;3.10;54.00
6824;DHT22;58633;49.470;11.004;2023-03-01T08:32:53;2.90;53.70
6824;DHT22;58633;49.470;11.004;2023-03-01T08:35:19;3.00;53.60
6824;DHT22;58633;49.470;11.004;2023-03-01T08:37:45;3.40;53.70
6824;DHT22;58633;49.470;11.004;2023-03-01T08:40:12;3.00;53.20
6824;DHT22;58633;49.470;11.004;2023-03-01T08:42:39;3.80;53.70
6824;DHT22;58633;49.470;11.004;2023-03-01T08:45:05;3.50;53.20
6824;DHT22;58633;49.470;11.004;2023-03-01T08:47:31;4.00;53.40
6824;DHT22;58633;49.470;11.004;2023-03-01T09:02:13;4.60;52.60
6824;DHT22;58633;49.470;11.004;2023-03-01T09:04:39;4.40;52.20
6824;DHT22;58633;49.470;11.004;2023-03-01T09:07:05;4.40;52.10
6824;DHT22;58633;49.470;11.004;2023-03-01T09:09:31;4.60;51.80
6824;DHT22;58633;49.470;11.004;2023-03-01T09:11:57;4.50;51.40
6824;DHT22;58633;49.470;11.004;2023-03-01T09:14:22;4.80;51.40
6824;DHT22;58633;49.470;11.004;2023-03-01T09:16:48;5.20;51.30
6824;DHT22;58633;49.470;11.004;2023-03-01T09:19:14;5.20;51.00
6824;DHT22;58633;49.470;11.004;2023-03-01T09:21:40;5.30;51.00
6824;DHT22;58633;49.470;11.004;2023-03-01T09:24:15;5.40;50.80
6824;DHT22;58633;49.470;11.004;2023-03-01T09:26:42;5.80;51.00
6824;DHT22;58633;49.470;11.004;2023-03-01T09:29:07;5.50;50.30
6824;DHT22;58633;49.470;11.004;2023-03-01T09:31:34;6.40;50.70
6824;DHT22;58633;49.470;11.004;2023-03-01T09:34:00;6.00;50.00
6824;DHT22;58633;49.470;11.004;2023-03-01T09:36:25;6.10;50.20
6824;DHT22;58633;49.470;11.004;2023-03-01T09:38:51;6.30;49.80
6824;DHT22;58633;49.470;11.004;2023-03-01T09:43:53;6.70;49.40
6824;DHT22;58633;49.470;11.004;2023-03-01T09:46:24;6.60;48.90
6824;DHT22;58633;49.470;11.004;2023-03-01T09:48:57;6.70;49.30
6824;DHT22;58633;49.470;11.004;2023-03-01T09:51:27;6.60;48.40
6824;DHT22;58633;49.470;11.004;2023-03-01T09:53:55;7.40;48.50
6824;DHT22;58633;49.470;11.004;2023-03-01T09:56:30;6.90;47.50
6824;DHT22;58633;49.470;11.004;2023-03-01T09:59:22;7.40;47.60
6824;DHT22;58633;49.470;11.004;2023-03-01T10:04:51;8.10;47.70
6824;DHT22;58633;49.470;11.004;2023-03-01T10:07:32;7.90;47.20
6824;DHT22;58633;49.470;11.004;2023-03-01T10:10:05;7.80;47.10
6824;DHT22;58633;49.470;11.004;2023-03-01T10:12:35;8.00;46.70
6824;DHT22;58633;49.470;11.004;2023-03-01T10:15:11;8.20;46.80
6824;DHT22;58633;49.470;11.004;2023-03-01T10:17:52;8.30;47.20
6824;DHT22;58633;49.470;11.004;2023-03-01T10:20:29;8.80;46.80
6824;DHT22;58633;49.470;11.004;2023-03-01T10:22:55;8.70;46.90
6824;DHT22;58633;49.470;11.004;2023-03-01T10:28:29;9.10;46.00
6824;DHT22;58633;49.470;11.004;2023-03-01T10:30:57;9.10;45.50
6824;DHT22;58633;49.470;11.004;2023-03-01T10:33:31;9.10;45.90
6824;DHT22;58633;49.470;11.004;2023-03-01T10:35:57;9.40;45.20
6824;DHT22;58633;49.470;11.004;2023-03-01T10:38:23;9.40;44.70
6824;DHT22;58633;49.470;11.004;2023-03-01T10:40:55;9.50;45.00
6824;DHT22;58633;49.470;11.004;2023-03-01T10:43:25;9.50;44.50
6824;DHT22;58633;49.470;11.004;2023-03-01T10:50:51;10.00;42.30
6824;DHT22;58633;49.470;11.004;2023-03-01T10:56:11;10.40;41.90
6824;DHT22;58633;49.470;11.004;2023-03-01T10:58:41;10.40;41.60
6824;DHT22;58633;49.470;11.004;2023-03-01T11:03:42;10.60;41.50
6824;DHT22;58633;49.470;11.004;2023-03-01T11:08:39;10.60;41.30
6824;DHT22;58633;49.470;11.004;2023-03-01T11:13:34;11.10;41.10
6824;DHT22;58633;49.470;11.004;2023-03-01T11:16:07;11.30;40.40
6824;DHT22;58633;49.470;11.004;2023-03-01T11:18:35;11.40;40.10
6824;DHT22;58633;49.470;11.004;2023-03-01T11:21:01;11.30;40.40
6824;DHT22;58633;49.470;11.004;2023-03-01T11:23:29;11.50;39.80
6824;DHT22;58633;49.470;11.004;2023-03-01T11:26:02;11.60;39.90
6824;DHT22;58633;49.470;11.004;2023-03-01T11:28:30;11.70;39.60
6824;DHT22;58633;49.470;11.004;2023-03-01T11:31:02;12.10;39.60
6824;DHT22;58633;49.470;11.004;2023-03-01T11:36:04;12.30;38.70
6824;DHT22;58633;49.470;11.004;2023-03-01T11:38:34;12.40;38.80
6824;DHT22;58633;49.470;11.004;2023-03-01T11:41:31;12.20;38.10
6824;DHT22;58633;49.470;11.004;2023-03-01T11:44:05;12.90;38.70
6824;DHT22;58633;49.470;11.004;2023-03-01T11:49:37;13.00;38.10
6824;DHT22;58633;49.470;11.004;2023-03-01T11:52:18;12.90;38.20
6824;DHT22;58633;49.470;11.004;2023-03-01T11:55:19;13.30;38.20
6824;DHT22;58633;49.470;11.004;2023-03-01T12:04:09;13.40;37.10
6824;DHT22;58633;49.470;11.004;2023-03-01T12:09:07;13.90;37.00
6824;DHT22;58633;49.470;11.004;2023-03-01T12:14:52;14.30;36.90
6824;DHT22;58633;49.470;11.004;2023-03-01T12:23:21;14.70;36.30
6824;DHT22;58633;49.470;11.004;2023-03-01T12:28:59;14.90;35.60
6824;DHT22;58633;49.470;11.004;2023-03-01T12:34:30;15.60;35.70
6824;DHT22;58633;49.470;11.004;2023-03-01T12:37:11;15.50;35.40
6824;DHT22;58633;49.470;11.004;2023-03-01T12:42:38;15.50;35.80
6824;DHT22;58633;49.470;11.004;2023-03-01T12:45:42;15.70;35.90
6824;DHT22;58633;49.470;11.004;2023-03-01T12:48:46;15.40;35.70
6824;DHT22;58633;49.470;11.004;2023-03-01T12:51:20;15.70;36.10
6824;DHT22;58633;49.470;11.004;2023-03-01T12:53:48;15.80;35.80
6824;DHT22;58633;49.470;11.004;2023-03-01T12:56:17;16.10;36.30
6824;DHT22;58633;49.470;11.004;2023-03-01T13:04:40;16.10;34.60
6824;DHT22;58633;49.470;11.004;2023-03-01T13:07:35;16.10;34.70
6824;DHT22;58633;49.470;11.004;2023-03-01T13:10:33;16.40;34.80
6824;DHT22;58633;49.470;11.004;2023-03-01T13:13:13;16.70;34.50
6824;DHT22;58633;49.470;11.004;2023-03-01T13:15:39;16.50;34.30
6824;DHT22;58633;49.470;11.004;2023-03-01T13:18:28;16.80;33.70
6824;DHT22;58633;49.470;11.004;2023-03-01T13:20:55;18.20;35.10
6824;DHT22;58633;49.470;11.004;2023-03-01T13:31:04;17.50;33.60
6824;DHT22;58633;49.470;11.004;2023-03-01T13:35:57;17.50;33.60
6824;DHT22;58633;49.470;11.004;2023-03-01T13:41:11;17.80;34.10
6824;DHT22;58633;49.470;11.004;2023-03-01T13:43:40;18.30;33.40
6824;DHT22;58633;49.470;11.004;2023-03-01T13:46:21;18.10;33.30
6824;DHT22;58633;49.470;11.004;2023-03-01T13:48:53;18.20;33.30
6824;DHT22;58633;49.470;11.004;2023-03-01T13:51:24;18.10;32.60
6824;DHT22;58633;49.470;11.004;2023-03-01T13:53:51;18.40;32.80
6824;DHT22;58633;49.470;11.004;2023-03-01T13:56:33;18.40;32.70
6824;DHT22;58633;49.470;11.004;2023-03-01T13:59:21;18.40;33.20
6824;DHT22;58633;49.470;11.004;2023-03-01T14:01:58;18.50;33.20
6824;DHT22;58633;49.470;11.004;2023-03-01T14:04:25;18.40;33.00
6824;DHT22;58633;49.470;11.004;2023-03-01T14:06:52;18.40;33.40
6824;DHT22;58633;49.470;11.004;2023-03-01T14:09:37;18.60;33.30
6824;DHT22;58633;49.470;11.004;2023-03-01T14:12:21;18.70;33.20
6824;DHT22;58633;49.470;11.004;2023-03-01T14:15:01;19.60;33.40
6824;DHT22;58633;49.470;11.004;2023-03-01T14:17:56;19.10;32.60
6824;DHT22;58633;49.470;11.004;2023-03-01T14:20:33;19.30;32.40
6824;DHT22;58633;49.470;11.004;2023-03-01T14:23:10;19.20;32.10
6824;DHT22;58633;49.470;11.004;2023-03-01T14:25:37;19.40;32.20
6824;DHT22;58633;49.470;11.004;2023-03-01T14:30:49;20.10;31.60
6824;DHT22;58633;49.470;11.004;2023-03-01T14:33:30;20.80;31.80
6824;DHT22;58633;49.470;11.004;2023-03-01T14:36:09;21.30;30.50
6824;DHT22;58633;49.470;11.004;2023-03-01T14:38:38;21.10;30.60
6824;DHT22;58633;49.470;11.004;2023-03-01T14:41:16;21.00;30.70
6824;DHT22;58633;49.470;11.004;2023-03-01T14:43:45;21.10;31.00
6824;DHT22;58633;49.470;11.004;2023-03-01T14:48:44;21.50;30.40
6824;DHT22;58633;49.470;11.004;2023-03-01T14:51:11;21.50;30.50
6824;DHT22;58633;49.470;11.004;2023-03-01T14:53:37;21.00;30.80
6824;DHT22;58633;49.470;11.004;2023-03-01T14:56:03;19.90;31.30
6824;DHT22;58633;49.470;11.004;2023-03-01T14:58:29;19.90;31.50
6824;DHT22;58633;49.470;11.004;2023-03-01T15:00:59;19.60;31.70
6824;DHT22;58633;49.470;11.004;2023-03-01T15:03:38;19.60;32.00
6824;DHT22;58633;49.470;11.004;2023-03-01T15:06:07;19.40;31.40
6824;DHT22;58633;49.470;11.004;2023-03-01T15:08:34;19.00;31.50
6824;DHT22;58633;49.470;11.004;2023-03-01T15:11:05;19.20;31.90
6824;DHT22;58633;49.470;11.004;2023-03-01T15:13:33;19.30;31.90
6824;DHT22;58633;49.470;11.004;2023-03-01T15:16:05;19.00;32.00
6824;DHT22;58633;49.470;11.004;2023-03-01T15:18:32;19.00;32.00
6824;DHT22;58633;49.470;11.004;2023-03-01T15:21:19;18.90;32.30
6824;DHT22;58633;49.470;11.004;2023-03-01T15:23:54;18.80;31.90
6824;DHT22;58633;49.470;11.004;2023-03-01T15:26:36;18.70;32.00
6824;DHT22;58633;49.470;11.004;2023-03-01T15:29:03;18.70;32.10
6824;DHT22;58633;49.470;11.004;2023-03-01T15:31:32;18.40;32.20
6824;DHT22;58633;49.470;11.004;2023-03-01T15:34:37;18.10;32.30
6824;DHT22;58633;49.470;11.004;2023-03-01T15:37:05;18.00;32.50
6824;DHT22;58633;49.470;11.004;2023-03-01T15:39:42;18.20;32.60
6824;DHT22;58633;49.470;11.004;2023-03-01T15:45:19;17.90;32.60
6824;DHT22;58633;49.470;11.004;2023-03-01T15:47:52;18.00;33.10
6824;DHT22;58633;49.470;11.004;2023-03-01T15:52:51;17.20;32.70
6824;DHT22;58633;49.470;11.004;2023-03-01T15:55:21;17.10;32.80
6824;DHT22;58633;49.470;11.004;2023-03-01T15:57:47;17.20;33.30
6824;DHT22;58633;49.470;11.004;2023-03-01T16:00:14;16.80;32.70
6824;DHT22;58633;49.470;11.004;2023-03-01T16:02:41;16.70;33.20
6824;DHT22;58633;49.470;11.004;2023-03-01T16:05:18;16.40;33.50
6824;DHT22;58633;49.470;11.004;2023-03-01T16:07:45;18.40;35.70
6824;DHT22;58633;49.470;11.004;2023-03-01T16:10:10;16.20;34.10
6824;DHT22;58633;49.470;11.004;2023-03-01T16:12:36;16.00;34.30
6824;DHT22;58633;49.470;11.004;2023-03-01T16:15:01;15.40;34.00
6824;DHT22;58633;49.470;11.004;2023-03-01T16:17:27;15.60;34.40
6824;DHT22;58633;49.470;11.004;2023-03-01T16:19:53;15.10;34.10
6824;DHT22;58633;49.470;11.004;2023-03-01T16:22:18;14.80;34.30
6824;DHT22;58633;49.470;11.004;2023-03-01T16:24:50;14.50;34.70
6824;DHT22;58633;49.470;11.004;2023-03-01T16:27:15;14.40;35.60
6824;DHT22;58633;49.470;11.004;2023-03-01T16:29:41;14.20;35.30
6824;DHT22;58633;49.470;11.004;2023-03-01T16:32:06;13.80;35.30
6824;DHT22;58633;49.470;11.004;2023-03-01T16:34:32;13.80;35.70
6824;DHT22;58633;49.470;11.004;2023-03-01T16:36:57;13.40;35.70
6824;DHT22;58633;49.470;11.004;2023-03-01T16:39:23;13.30;36.00
6824;DHT22;58633;49.470;11.004;2023-03-01T16:41:49;13.10;36.30
6824;DHT22;58633;49.470;11.004;2023-03-01T16:44:15;13.10;36.60
6824;DHT22;58633;49.470;11.004;2023-03-01T16:46:44;12.70;36.50
6824;DHT22;58633;49.470;11.004;2023-03-01T16:49:10;12.50;36.70
6824;DHT22;58633;49.470;11.004;2023-03-01T16:51:36;12.70;37.20
6824;DHT22;58633;49.470;11.004;2023-03-01T16:54:02;12.40;37.10
6824;DHT22;58633;49.470;11.004;2023-03-01T16:56:30;12.10;37.20
6824;DHT22;58633;49.470;11.004;2023-03-01T16:58:57;11.60;37.00
6824;DHT22;58633;49.470;11.004;2023-03-01T17:01:23;11.60;37.60
6824;DHT22;58633;49.470;11.004;2023-03-01T17:03:49;11.80;38.00
6824;DHT22;58633;49.470;11.004;2023-03-01T17:06:18;11.50;38.00
6824;DHT22;58633;49.470;11.004;2023-03-01T17:08:45;11.50;38.50
6824;DHT22;58633;49.470;11.004;2023-03-01T17:11:16;11.30;38.20
6824;DHT22;58633;49.470;11.004;2023-03-01T17:13:43;11.20;38.40
6824;DHT22;58633;49.470;11.004;2023-03-01T17:16:11;11.10;38.50
6824;DHT22;58633;49.470;11.004;2023-03-01T17:18:37;11.10;38.60
6824;DHT22;58633;49.470;11.004;2023-03-01T17:21:04;10.90;39.10
6824;DHT22;58633;49.470;11.004;2023-03-01T17:23:31;10.70;39.10
6824;DHT22;58633;49.470;11.004;2023-03-01T17:25:57;10.60;39.20
6824;DHT22;58633;49.470;11.004;2023-03-01T17:28:25;10.50;39.40
6824;DHT22;58633;49.470;11.004;2023-03-01T17:30:51;10.50;39.70
6824;DHT22;58633;49.470;11.004;2023-03-01T17:33:17;10.40;40.10
6824;DHT22;58633;49.470;11.004;2023-03-01T17:35:43;10.50;40.40
6824;DHT22;58633;49.470;11.004;2023-03-01T17:38:12;10.60;40.30
6824;DHT22;58633;49.470;11.004;2023-03-01T17:40:37;10.30;40.50
6824;DHT22;58633;49.470;11.004;2023-03-01T17:43:04;10.20;40.10
6824;DHT22;58633;49.470;11.004;2023-03-01T17:45:30;10.10;40.20
6824;DHT22;58633;49.470;11.004;2023-03-01T17:47:55;10.00;40.40
6824;DHT22;58633;49.470;11.004;2023-03-01T17:50:21;9.80;41.30
6824;DHT22;58633;49.470;11.004;2023-03-01T17:52:46;9.90;41.70
6824;DHT22;58633;49.470;11.004;2023-03-01T17:55:12;10.00;41.00
6824;DHT22;58633;49.470;11.004;2023-03-01T17:57:41;9.70;41.80
6824;DHT22;58633;49.470;11.004;2023-03-01T18:00:09;9.70;42.00
6824;DHT22;58633;49.470;11.004;2023-03-01T18:02:36;9.70;42.50
6824;DHT22;58633;49.470;11.004;2023-03-01T18:07:28;9.70;42.20
6824;DHT22;58633;49.470;11.004;2023-03-01T18:12:19;9.50;42.60
6824;DHT22;58633;49.470;11.004;2023-03-01T18:19:39;9.20;42.70
6824;DHT22;58633;49.470;11.004;2023-03-01T18:22:07;9.20;42.80
6824;DHT22;58633;49.470;11.004;2023-03-01T18:24:33;9.00;42.80
6824;DHT22;58633;49.470;11.004;2023-03-01T18:29:25;9.10;43.20
6824;DHT22;58633;49.470;11.004;2023-03-01T18:31:50;9.10;43.20
6824;DHT22;58633;49.470;11.004;2023-03-01T18:34:16;8.90;43.20
6824;DHT22;58633;49.470;11.004;2023-03-01T18:36:42;8.70;43.20
6824;DHT22;58633;49.470;11.004;2023-03-01T18:39:07;8.80;43.50
6824;DHT22;58633;49.470;11.004;2023-03-01T18:41:34;8.70;43.60
6824;DHT22;58633;49.470;11.004;2023-03-01T18:44:00;8.60;43.70
6824;DHT22;58633;49.470;11.004;2023-03-01T18:46:26;8.60;43.70
6824;DHT22;58633;49.470;11.004;2023-03-01T18:48:52;8.60;43.90
6824;DHT22;58633;49.470;11.004;2023-03-01T18:51:21;8.40;43.90
6824;DHT22;58633;49.470;11.004;2023-03-01T18:53:47;8.70;44.30
6824;DHT22;58633;49.470;11.004;2023-03-01T18:56:13;8.40;44.10
6824;DHT22;58633;49.470;11.004;2023-03-01T18:58:40;8.20;44.00
6824;DHT22;58633;49.470;11.004;2023-03-01T19:01:13;8.10;44.20
6824;DHT22;58633;49.470;11.004;2023-03-01T19:03:39;8.30;44.80